Time;durP1;ratioP1;P1;durP2;ratioP2;P2;SDS_P1;SDS_P2;PMS_P1;PMS_P2;Temp;Humidity;BMP_temperature;BMP_pressure;BME280_temperature;BME280_humidity;BME280_pressure;Samples;Min_cycle;Max_cycle;Signal;HPM_P1;HPM_P2
2023/03/31 04:16:08;;;;;;;6.80;5.10;;;;;;;7.32;100.00;99847.66;5562539;32;167119;-86
2023/03/31 04:19:13;;;;;;;10.98;5.32;;;;;;;7.32;100.00;99841.50;5548401;32;33771;-85
2023/03/31 04:22:19;;;;;;;8.43;5.03;;;;;;;7.44;100.00;99842.75;5549450;32;34545;-83
2023/03/31 04:25:22;;;;;;;6.12;4.62;;;;;;;7.48;100.00;99837.25;5549880;32;35222;-83
2023/03/31 04:28:33;;;;;;;7.50;4.90;;;;;;;7.55;100.00;99820.22;5547909;32;33991;-84
2023/03/31 04:31:41;;;;;;;7.43;4.97;;;;;;;7.61;100.00;99834.94;5547075;32;33925;-83
2023/03/31 04:34:45;;;;;;;7.35;5.12;;;;;;;7.52;100.00;99845.88;5549051;32;34110;-84
2023/03/31 04:37:51;;;;;;;5.50;4.87;;;;;;;7.63;100.00;99837.47;5553842;32;34592;-84
2023/03/31 04:40:53;;;;;;;8.00;5.20;;;;;;;7.58;100.00;99837.69;5555310;32;34599;-84
2023/03/31 04:43:56;;;;;;;8.45;5.10;;;;;;;7.54;100.00;99834.34;5548771;32;34332;-87
2023/03/31 04:47:05;;;;;;;6.87;4.97;;;;;;;7.74;100.00;99824.63;5536498;32;33605;-84
2023/03/31 04:50:09;;;;;;;7.32;5.28;;;;;;;7.72;100.00;99826.50;5548522;32;34572;-84
2023/03/31 04:53:17;;;;;;;16.58;5.03;;;;;;;7.59;100.00;99825.37;5548561;32;33802;-84
2023/03/31 04:56:21;;;;;;;8.15;5.30;;;;;;;7.48;100.00;99829.34;5548608;32;34497;-84
2023/03/31 04:59:24;;;;;;;6.45;5.03;;;;;;;7.47;100.00;99832.03;5548977;32;34935;-83
2023/03/31 05:02:27;;;;;;;7.93;4.80;;;;;;;7.51;100.00;99823.06;5546435;32;34321;-84
2023/03/31 05:05:30;;;;;;;5.93;5.10;;;;;;;7.56;100.00;99821.06;5530008;32;34376;-84
2023/03/31 05:08:32;;;;;;;9.50;5.70;;;;;;;7.57;100.00;99820.16;5540040;32;34776;-84
2023/03/31 05:11:35;;;;;;;7.72;5.05;;;;;;;7.61;100.00;99816.44;5551284;32;34012;-84
2023/03/31 05:14:38;;;;;;;7.80;4.87;;;;;;;7.83;100.00;99815.44;5563031;32;34408;-84
2023/03/31 05:17:41;;;;;;;7.45;5.18;;;;;;;7.99;100.00;99812.91;5562263;32;33965;-84
2023/03/31 05:20:44;;;;;;;10.05;5.28;;;;;;;8.02;100.00;99812.78;5545746;32;33734;-84
2023/03/31 05:23:47;;;;;;;8.60;4.80;;;;;;;8.01;100.00;99803.16;5542153;32;33889;-84
2023/03/31 05:26:53;;;;;;;7.10;4.68;;;;;;;8.18;100.00;99810.25;5541090;32;32584;-83
2023/03/31 05:29:55;;;;;;;7.18;4.97;;;;;;;8.33;100.00;99802.47;5542256;32;34682;-84
2023/03/31 05:32:58;;;;;;;8.15;5.03;;;;;;;8.35;100.00;99801.47;5540319;32;34165;-84
2023/03/31 05:36:01;;;;;;;6.70;5.37;;;;;;;8.40;100.00;99803.87;5537669;32;34330;-84
2023/03/31 05:39:05;;;;;;;5.90;5.30;;;;;;;8.58;100.00;99801.28;5530992;32;34592;-84
2023/03/31 05:42:07;;;;;;;6.25;4.70;;;;;;;8.81;100.00;99810.69;5530583;32;33927;-84
2023/03/31 05:45:11;;;;;;;6.72;4.62;;;;;;;9.35;100.00;99809.66;5521163;32;34028;-83
2023/03/31 05:48:14;;;;;;;7.97;5.15;;;;;;;9.83;100.00;99803.53;5529324;32;33837;-83
2023/03/31 05:51:20;;;;;;;5.87;4.70;;;;;;;10.41;100.00;99809.09;5532372;32;33865;-83
2023/03/31 05:54:23;;;;;;;7.55;4.85;;;;;;;10.96;100.00;99805.97;5525878;32;35036;-83
2023/03/31 05:57:25;;;;;;;7.00;4.72;;;;;;;12.02;100.00;99799.41;5537118;32;34037;-83
2023/03/31 06:00:28;;;;;;;7.78;4.72;;;;;;;13.56;100.00;99791.72;5545329;32;35107;-84
2023/03/31 06:03:35;;;;;;;8.57;4.20;;;;;;;15.46;100.00;99801.63;5539540;32;34312;-83
2023/03/31 06:06:38;;;;;;;5.37;4.40;;;;;;;17.19;89.13;99793.69;5537680;32;34897;-84
2023/03/31 06:09:41;;;;;;;8.27;4.75;;;;;;;18.09;82.04;99794.84;5520548;32;34216;-84
2023/03/31 06:12:43;;;;;;;7.32;4.65;;;;;;;18.86;79.96;99793.09;5528471;32;34236;-86
2023/03/31 06:15:57;;;;;;;4.00;3.60;;;;;;;19.31;74.24;99804.16;5532608;32;33658;-84
2023/03/31 06:19:00;;;;;;;5.43;4.00;;;;;;;19.36;71.64;99809.13;5534720;32;34186;-84
2023/03/31 06:22:03;;;;;;;5.78;4.32;;;;;;;20.36;67.22;99792.25;5532479;32;33861;-83
2023/03/31 06:25:06;;;;;;;6.15;4.30;;;;;;;20.64;64.42;99797.53;5534323;32;34116;-83
2023/03/31 06:28:09;;;;;;;6.22;4.30;;;;;;;22.05;59.97;99795.59;5527826;32;34279;-83
2023/03/31 06:31:17;;;;;;;6.57;4.40;;;;;;;22.51;54.61;99796.97;5552987;32;33987;-85
2023/03/31 06:34:21;;;;;;;4.90;3.90;;;;;;;23.25;49.46;99797.91;5556043;32;33551;-85
2023/03/31 06:37:23;;;;;;;5.43;4.50;;;;;;;23.39;47.05;99793.69;5544797;32;33933;-85
2023/03/31 06:40:26;;;;;;;4.93;4.18;;;;;;;24.29;44.97;99796.09;5550356;32;36237;-86
2023/03/31 06:43:29;;;;;;;7.40;4.15;;;;;;;23.75;44.36;99797.75;5537696;32;33807;-86
2023/03/31 06:46:32;;;;;;;5.93;4.60;;;;;;;21.86;49.38;99790.44;5520140;32;34642;-88
2023/03/31 06:49:36;;;;;;;6.22;3.80;;;;;;;22.49;48.31;99782.78;5532198;32;33717;-90
2023/03/31 06:52:42;;;;;;;7.22;3.25;;;;;;;23.13;45.79;99783.94;5549785;32;33843;-90
2023/03/31 06:55:45;;;;;;;5.22;3.90;;;;;;;21.83;48.77;99777.31;5548839;32;33683;-86
2023/03/31 06:58:48;;;;;;;4.45;3.92;;;;;;;22.15;49.42;99781.94;5540569;32;34401;-85
2023/03/31 07:01:50;;;;;;;8.05;3.80;;;;;;;23.20;45.63;99789.47;5542081;32;34122;-87
2023/03/31 07:04:53;;;;;;;10.82;3.47;;;;;;;23.78;43.37;99790.09;5563015;32;34198;-87
2023/03/31 07:07:58;;;;;;;6.57;3.12;;;;;;;23.06;45.20;99783.75;5543498;32;34011;-87
2023/03/31 07:11:02;;;;;;;7.62;3.37;;;;;;;22.97;45.52;99774.81;5538440;32;33508;-87
2023/03/31 07:14:06;;;;;;;5.82;3.35;;;;;;;22.80;47.50;99787.53;5535022;32;34835;-87
2023/03/31 07:17:09;;;;;;;7.45;3.17;;;;;;;22.51;45.62;99788.00;5534879;32;34637;-87
2023/03/31 07:20:14;;;;;;;6.65;3.20;;;;;;;23.40;44.81;99781.81;5537253;32;33912;-87
2023/03/31 07:23:19;;;;;;;4.32;3.12;;;;;;;23.96;44.79;99780.87;5547038;32;35170;-86
2023/03/31 07:26:23;;;;;;;6.40;3.45;;;;;;;25.62;39.86;99770.38;5547673;32;34223;-85
2023/03/31 07:29:26;;;;;;;4.47;2.87;;;;;;;27.22;36.73;99771.19;5526264;32;34073;-85
2023/03/31 07:32:28;;;;;;;4.25;3.22;;;;;;;28.40;35.45;99766.56;5544146;32;33602;-85
2023/03/31 07:35:32;;;;;;;4.50;3.00;;;;;;;28.72;34.08;99764.06;5530434;32;33847;-85
2023/03/31 07:38:34;;;;;;;5.07;3.20;;;;;;;28.82;30.94;99769.06;5520802;32;34529;-84
2023/03/31 07:41:38;;;;;;;4.12;3.03;;;;;;;28.35;33.20;99763.63;5524774;32;35154;-86
2023/03/31 07:44:41;;;;;;;4.40;3.15;;;;;;;28.16;31.99;99754.34;5533436;32;33620;-85
2023/03/31 07:47:45;;;;;;;5.05;3.17;;;;;;;27.14;34.35;99756.72;5531401;32;33600;-84
2023/03/31 07:50:48;;;;;;;3.83;3.42;;;;;;;27.12;34.49;99749.78;5530632;32;34613;-85
2023/03/31 07:53:51;;;;;;;7.20;5.60;;;;;;;26.73;34.38;99752.00;5548390;32;34062;-85
2023/03/31 07:56:54;;;;;;;9.23;6.20;;;;;;;25.94;37.85;99732.94;5532957;32;33861;-85
2023/03/31 07:59:57;;;;;;;7.90;7.03;;;;;;;26.30;39.85;99728.47;5534818;32;34064;-85
2023/03/31 08:03:00;;;;;;;10.95;7.03;;;;;;;25.53;38.34;99731.63;5544742;32;33844;-85
2023/03/31 08:06:03;;;;;;;7.05;6.20;;;;;;;25.00;43.11;99730.72;5550342;32;33932;-85
2023/03/31 08:09:06;;;;;;;9.48;6.80;;;;;;;24.74;40.29;99728.44;5524039;32;33927;-85
2023/03/31 08:12:10;;;;;;;7.55;6.25;;;;;;;25.87;38.71;99726.56;5530617;32;33901;-85
2023/03/31 08:15:12;;;;;;;12.30;5.93;;;;;;;25.58;41.45;99729.19;5526787;32;33928;-86
2023/03/31 08:18:16;;;;;;;11.18;6.20;;;;;;;23.75;43.28;99716.50;5514627;32;33966;-86
2023/03/31 08:21:18;;;;;;;10.18;6.32;;;;;;;22.67;48.08;99709.66;5527050;32;34925;-86
2023/03/31 08:24:24;;;;;;;14.85;6.97;;;;;;;22.18;49.70;99705.94;5528779;32;33784;-85
2023/03/31 08:27:27;;;;;;;8.75;6.15;;;;;;;20.75;54.37;99694.03;5537043;32;34590;-85
2023/03/31 08:30:30;;;;;;;10.02;6.45;;;;;;;21.18;52.14;99702.19;5540751;32;34616;-86
2023/03/31 08:33:33;;;;;;;8.43;6.25;;;;;;;20.44;55.52;99694.50;5539021;32;35301;-85
2023/03/31 08:36:36;;;;;;;8.88;6.68;;;;;;;20.68;53.29;99685.75;5532391;32;33670;-85
2023/03/31 08:39:40;;;;;;;10.63;5.80;;;;;;;20.37;56.71;99677.28;5527004;32;35056;-85
2023/03/31 08:42:57;;;;;;;9.60;6.37;;;;;;;20.66;56.52;99676.13;5541179;32;33791;-86
2023/03/31 08:46:01;;;;;;;8.45;6.05;;;;;;;20.49;56.82;99661.69;5521643;32;34389;-85
2023/03/31 08:49:05;;;;;;;8.32;5.62;;;;;;;20.70;56.67;99647.84;5512658;32;34221;-90
2023/03/31 08:52:15;;;;;;;8.85;6.55;;;;;;;20.85;57.70;99653.50;5540342;32;33485;-90
2023/03/31 08:55:48;;;;;;;8.18;6.20;;;;;;;19.88;58.20;99651.63;5537992;32;34015;-86
2023/03/31 08:58:52;;;;;;;12.45;5.20;;;;;;;20.31;60.82;99646.41;5536674;32;33805;-86
2023/03/31 09:02:11;;;;;;;10.48;6.07;;;;;;;21.05;56.43;99637.06;5553100;32;35452;-86
2023/03/31 09:05:41;;;;;;;8.60;5.93;;;;;;;20.74;55.47;99631.22;5531864;32;33944;-85
2023/03/31 09:09:02;;;;;;;20.98;5.15;;;;;;;20.77;56.07;99630.00;5531537;32;34121;-86
2023/03/31 09:12:15;;;;;;;6.53;5.32;;;;;;;21.68;54.90;99626.78;5518498;32;34653;-86
2023/03/31 09:16:06;;;;;;;10.43;5.93;;;;;;;22.19;52.52;99615.81;5530392;32;34602;-86
2023/03/31 09:19:26;;;;;;;7.53;6.00;;;;;;;21.25;52.70;99611.53;5488300;32;35103;-87
2023/03/31 09:22:34;;;;;;;;;;;;;;;21.14;52.39;99609.97;5526232;32;34220;-86
2023/03/31 09:25:40;;;;;;;9.10;4.87;;;;;;;21.47;51.85;99603.81;5546962;32;34848;-86
2023/03/31 09:28:45;;;;;;;6.75;4.57;;;;;;;20.96;52.72;99595.75;5524370;32;33950;-86
2023/03/31 09:31:48;;;;;;;6.57;5.10;;;;;;;21.13;52.00;99593.97;5533079;32;33996;-86
2023/03/31 09:34:56;;;;;;;6.72;4.90;;;;;;;20.75;52.49;99597.00;5532465;32;33960;-85
2023/03/31 09:37:59;;;;;;;7.47;4.85;;;;;;;20.69;52.29;99582.34;5535680;32;34060;-86
2023/03/31 09:41:04;;;;;;;7.57;4.72;;;;;;;20.93;55.11;99586.16;5521123;32;33723;-86
2023/03/31 09:44:21;;;;;;;6.60;4.70;;;;;;;20.10;57.04;99584.88;5516052;32;34359;-86
2023/03/31 09:47:45;;;;;;;6.75;4.70;;;;;;;20.63;58.20;99574.06;5538974;32;35188;-86
2023/03/31 09:50:52;;;;;;;7.50;4.75;;;;;;;20.93;56.80;99579.94;5529489;32;34230;-86
2023/03/31 09:53:59;;;;;;;5.57;4.80;;;;;;;21.73;53.02;99573.16;5521502;32;34068;-85
2023/03/31 09:57:11;;;;;;;9.07;4.85;;;;;;;21.86;52.88;99566.37;5544518;32;34414;-85
2023/03/31 10:00:20;;;;;;;6.05;4.62;;;;;;;21.89;52.47;99558.81;5551034;32;34444;-86
2023/03/31 10:03:23;;;;;;;4.97;4.35;;;;;;;21.18;53.26;99558.41;5537109;32;34056;-86
2023/03/31 10:06:26;;;;;;;7.55;4.55;;;;;;;20.73;54.32;99548.66;5547918;32;34257;-86
2023/03/31 10:09:32;;;;;;;6.65;4.72;;;;;;;20.27;55.58;99535.50;5555638;32;34155;-87
2023/03/31 10:12:35;;;;;;;5.50;4.37;;;;;;;20.31;56.39;99527.94;5555698;32;34558;-86
2023/03/31 10:15:39;;;;;;;5.37;4.00;;;;;;;21.04;55.20;99527.53;5557532;32;34050;-86
2023/03/31 10:18:44;;;;;;;7.32;3.60;;;;;;;21.97;50.63;99524.72;5540727;32;34596;-87
2023/03/31 10:22:06;;;;;;;3.75;2.55;;;;;;;23.19;48.94;99515.41;5553722;32;34219;-91
2023/03/31 10:25:23;;;;;;;3.80;2.95;;;;;;;23.59;42.95;99522.56;5564604;32;34141;-87
2023/03/31 10:28:30;;;;;;;3.55;3.20;;;;;;;25.64;37.93;99515.78;5545469;32;33785;-87
2023/03/31 10:31:35;;;;;;;5.53;3.22;;;;;;;25.42;39.33;99507.63;5550306;32;34730;-86
2023/03/31 10:34:41;;;;;;;4.95;3.30;;;;;;;24.05;41.91;99505.37;5559617;32;33927;-86
2023/03/31 10:37:46;;;;;;;4.18;3.40;;;;;;;22.62;44.29;99502.06;5545126;32;33812;-85
2023/03/31 10:40:53;;;;;;;4.00;3.00;;;;;;;21.41;46.92;99488.47;5551611;32;35321;-86
2023/03/31 10:43:57;;;;;;;6.97;3.90;;;;;;;20.87;47.30;99503.28;5566481;32;34096;-85
2023/03/31 10:47:20;;;;;;;3.87;3.47;;;;;;;20.49;51.95;99497.37;5546396;32;34529;-84
2023/03/31 10:50:31;;;;;;;3.92;3.22;;;;;;;20.72;51.92;99495.78;5545480;32;33949;-85
2023/03/31 10:53:43;;;;;;;5.80;3.10;;;;;;;21.16;48.11;99488.47;5552682;32;35199;-85
2023/03/31 10:56:50;;;;;;;2.65;2.45;;;;;;;22.54;44.63;99483.19;5544616;32;32977;-85
2023/03/31 11:00:42;;;;;;;4.07;2.85;;;;;;;25.15;37.70;99496.53;5552395;32;34466;-85
2023/03/31 11:04:03;;;;;;;4.22;3.42;;;;;;;27.85;33.18;99482.22;5532688;32;33804;-90
2023/03/31 11:07:17;;;;;;;4.12;3.30;;;;;;;27.56;33.55;99483.50;5546420;32;33814;-86
2023/03/31 11:10:23;;;;;;;3.80;3.22;;;;;;;24.70;38.70;99477.66;5553322;32;32669;-86
2023/03/31 11:13:36;;;;;;;4.45;3.40;;;;;;;23.20;43.85;99464.84;5564265;31;34902;-86
2023/03/31 11:16:53;;;;;;;4.45;3.28;;;;;;;22.69;43.45;99477.88;5555765;32;34309;-86
2023/03/31 11:20:00;;;;;;;10.23;3.80;;;;;;;21.70;46.04;99467.37;5555813;32;34298;-85
2023/03/31 11:23:25;;;;;;;4.57;3.72;;;;;;;20.66;51.79;99466.78;5548079;32;34010;-85
2023/03/31 11:26:28;;;;;;;5.93;3.15;;;;;;;20.84;50.24;99463.12;5553737;32;34879;-86
2023/03/31 11:29:44;;;;;;;5.80;3.00;;;;;;;21.13;46.96;99445.69;5541241;32;33678;-85
2023/03/31 11:32:57;;;;;;;3.08;2.55;;;;;;;21.79;44.57;99445.59;5558806;32;34257;-86
2023/03/31 11:36:11;;;;;;;3.45;2.50;;;;;;;21.44;45.54;99431.50;5556720;32;34386;-85
2023/03/31 11:39:50;;;;;;;4.43;2.90;;;;;;;21.08;45.55;99416.50;5555622;32;33988;-86
2023/03/31 11:43:15;;;;;;;5.25;2.90;;;;;;;20.15;48.32;99403.03;5539878;32;34004;-86
2023/03/31 11:46:32;;;;;;;4.03;3.25;;;;;;;19.56;50.32;99389.44;5563716;32;34281;-86
2023/03/31 11:49:40;;;;;;;3.10;2.80;;;;;;;19.70;51.25;99371.84;5579328;32;33962;-85
2023/03/31 11:52:53;;;;;;;4.82;3.37;;;;;;;19.61;51.96;99366.41;5579844;32;34185;-85
2023/03/31 11:55:58;;;;;;;5.65;3.37;;;;;;;20.02;51.42;99363.09;5573460;32;33924;-85
2023/03/31 11:59:03;;;;;;;4.00;3.60;;;;;;;20.45;51.71;99362.19;5573861;32;34209;-85
